Time;durP1;ratioP1;P1;durP2;ratioP2;P2;SDS_P1;SDS_P2;PMS_P1;PMS_P2;Temp;Humidity;BMP_temperature;BMP_pressure;BME280_temperature;BME280_humidity;BME280_pressure;Samples;Min_cycle;Max_cycle;Signal;HPM_P1;HPM_P2
2023/11/14 00:01:38;;;;;;;10.87;2.27;;;11.80;99.90;;;;;;5082277;28;20740;-68
2023/11/14 00:04:06;;;;;;;11.27;1.67;;;11.80;99.90;;;;;;5079352;28;20461;-69
2023/11/14 00:06:34;;;;;;;12.77;2.33;;;11.80;99.90;;;;;;5079055;28;20459;-69
2023/11/14 00:09:03;;;;;;;14.70;1.87;;;11.80;99.90;;;;;;5081058;28;20529;-69
2023/11/14 00:11:34;;;;;;;14.83;3.80;;;11.90;99.90;;;;;;5081073;28;20482;-69
2023/11/14 00:14:03;;;;;;;9.13;1.80;;;11.90;99.90;;;;;;5085805;28;20446;-70
2023/11/14 00:16:31;;;;;;;15.93;2.30;;;11.90;99.90;;;;;;5090063;28;20444;-66
2023/11/14 00:19:00;;;;;;;10.17;1.83;;;11.90;99.90;;;;;;5091705;28;20904;-69
2023/11/14 00:21:28;;;;;;;8.70;1.73;;;11.90;99.90;;;;;;5091803;28;20537;-68
2023/11/14 00:23:56;;;;;;;12.83;1.70;;;11.90;99.90;;;;;;5083337;28;20946;-68
2023/11/14 00:26:24;;;;;;;10.40;1.67;;;12.00;99.90;;;;;;5087429;28;20442;-68
2023/11/14 00:28:52;;;;;;;12.37;2.07;;;11.90;99.90;;;;;;5091471;28;20466;-72
2023/11/14 00:31:20;;;;;;;9.53;1.53;;;12.00;99.90;;;;;;5103938;28;20478;-69
2023/11/14 00:33:48;;;;;;;13.97;2.03;;;12.00;99.90;;;;;;5100586;28;20534;-69
2023/11/14 00:36:18;;;;;;;9.80;1.90;;;11.90;99.90;;;;;;5085399;28;20489;-71
2023/11/14 00:38:46;;;;;;;12.37;1.80;;;11.90;99.90;;;;;;5090064;28;20462;-69
2023/11/14 00:41:14;;;;;;;13.87;1.87;;;11.80;99.90;;;;;;5092514;28;20493;-69
2023/11/14 00:43:42;;;;;;;11.80;2.37;;;11.70;99.90;;;;;;5088697;28;20442;-71
2023/11/14 00:46:12;;;;;;;8.93;1.60;;;11.70;99.90;;;;;;5100484;28;20516;-68
2023/11/14 00:48:40;;;;;;;12.40;2.10;;;11.60;99.90;;;;;;5092202;28;20534;-69
2023/11/14 00:51:08;;;;;;;13.47;1.97;;;11.60;99.90;;;;;;5092288;28;20512;-69
2023/11/14 00:53:37;;;;;;;9.93;1.77;;;11.50;99.90;;;;;;5091763;28;20515;-67
2023/11/14 00:56:05;;;;;;;10.27;1.70;;;11.50;99.90;;;;;;5090122;28;20453;-69
2023/11/14 00:58:35;;;;;;;10.43;1.83;;;11.40;99.90;;;;;;5092025;28;20503;-68
2023/11/14 01:01:04;;;;;;;17.03;2.40;;;11.40;99.90;;;;;;5089971;28;20480;-69
2023/11/14 01:03:32;;;;;;;12.73;2.40;;;11.40;99.90;;;;;;5100100;28;20528;-67
2023/11/14 01:06:00;;;;;;;12.27;1.97;;;11.50;99.90;;;;;;5091835;28;20523;-67
2023/11/14 01:08:28;;;;;;;12.23;1.67;;;11.40;99.90;;;;;;5096893;28;20460;-65
2023/11/14 01:10:57;;;;;;;11.23;2.00;;;11.40;99.90;;;;;;5098510;28;20489;-68
2023/11/14 01:13:25;;;;;;;11.77;1.90;;;11.30;99.90;;;;;;5092272;28;20452;-69
2023/11/14 01:15:53;;;;;;;9.00;2.03;;;11.20;99.90;;;;;;5091162;28;20937;-69
2023/11/14 01:18:21;;;;;;;11.17;1.70;;;11.20;99.90;;;;;;5076551;28;20462;-67
2023/11/14 01:20:49;;;;;;;15.47;2.40;;;11.20;99.90;;;;;;5082388;28;20473;-67
2023/11/14 01:23:17;;;;;;;11.10;1.53;;;11.30;99.90;;;;;;5091535;28;20450;-69
2023/11/14 01:25:46;;;;;;;10.27;1.90;;;11.30;99.90;;;;;;5090942;28;20465;-69
2023/11/14 01:28:15;;;;;;;9.40;1.53;;;11.40;99.90;;;;;;5080806;28;20502;-69
2023/11/14 01:30:43;;;;;;;12.50;2.40;;;11.40;99.90;;;;;;5092498;28;20880;-69
2023/11/14 01:33:11;;;;;;;13.77;1.60;;;11.40;99.90;;;;;;5096922;28;20449;-68
2023/11/14 01:35:39;;;;;;;15.50;2.23;;;11.50;99.90;;;;;;5106247;28;20502;-69
2023/11/14 01:38:07;;;;;;;15.23;1.93;;;11.50;99.90;;;;;;5091397;28;20512;-68
2023/11/14 01:40:34;;;;;;;12.20;1.97;;;11.50;99.90;;;;;;5091354;28;20441;-68
2023/11/14 01:43:03;;;;;;;11.13;2.13;;;11.60;99.90;;;;;;5087847;28;20894;-68
2023/11/14 01:45:32;;;;;;;16.03;2.20;;;11.50;99.90;;;;;;5088459;28;20880;-68
2023/11/14 01:48:00;;;;;;;13.77;1.77;;;11.50;99.90;;;;;;5091097;28;20909;-70
2023/11/14 01:50:28;;;;;;;10.67;2.47;;;11.50;99.90;;;;;;5090773;28;20484;-68
2023/11/14 01:52:56;;;;;;;13.97;2.00;;;11.50;99.90;;;;;;5090988;28;20979;-67
2023/11/14 01:55:25;;;;;;;11.90;2.10;;;11.50;99.90;;;;;;5090264;28;20456;-68
2023/11/14 01:57:55;;;;;;;12.07;2.40;;;11.50;99.90;;;;;;5091555;28;20541;-67
2023/11/14 02:00:25;;;;;;;13.97;2.53;;;11.40;99.90;;;;;;5081194;28;20468;-68
2023/11/14 02:02:54;;;;;;;14.90;2.00;;;11.40;99.90;;;;;;5090567;28;20979;-68
2023/11/14 02:05:22;;;;;;;10.87;1.80;;;11.40;99.90;;;;;;5090461;28;20445;-69
2023/11/14 02:07:50;;;;;;;11.07;2.07;;;11.40;99.90;;;;;;5090502;28;20473;-71
2023/11/14 02:10:18;;;;;;;9.47;2.23;;;11.30;99.90;;;;;;5090724;28;20499;-69
2023/11/14 02:12:46;;;;;;;12.53;2.80;;;11.30;99.90;;;;;;5090698;28;20485;-70
2023/11/14 02:15:14;;;;;;;9.77;1.90;;;11.30;99.90;;;;;;5086704;28;20900;-71
2023/11/14 02:17:43;;;;;;;12.90;1.77;;;11.30;99.90;;;;;;5083908;28;20996;-69
2023/11/14 02:20:13;;;;;;;16.00;3.10;;;11.30;99.90;;;;;;5071959;28;20938;-68
2023/11/14 02:22:42;;;;;;;9.10;2.07;;;11.40;99.90;;;;;;5086238;28;20472;-68
2023/11/14 02:25:12;;;;;;;8.33;1.70;;;11.50;99.90;;;;;;5090387;28;20500;-68
2023/11/14 02:27:40;;;;;;;13.40;1.80;;;11.40;99.90;;;;;;5087320;28;20906;-68
2023/11/14 02:30:08;;;;;;;13.47;2.50;;;11.40;99.90;;;;;;5072237;28;20525;-68
2023/11/14 02:32:36;;;;;;;8.97;1.70;;;11.40;99.90;;;;;;5079320;28;20481;-67
2023/11/14 02:35:05;;;;;;;15.70;2.03;;;11.40;99.90;;;;;;5081058;28;20484;-68
2023/11/14 02:37:33;;;;;;;15.37;2.43;;;11.40;99.90;;;;;;5087490;28;20484;-68
2023/11/14 02:40:03;;;;;;;11.20;3.27;;;11.40;99.90;;;;;;5087950;28;21000;-69
2023/11/14 02:42:32;;;;;;;14.10;2.17;;;11.40;99.90;;;;;;5083364;28;20473;-66
2023/11/14 02:45:00;;;;;;;15.43;2.10;;;11.30;99.90;;;;;;5087913;28;20480;-69
2023/11/14 02:47:28;;;;;;;12.57;2.33;;;11.30;99.90;;;;;;5088303;28;20469;-68
2023/11/14 02:50:04;;;;;;;10.13;2.37;;;11.30;99.90;;;;;;5086604;28;20473;-68
2023/11/14 02:52:36;;;;;;;9.67;1.63;;;11.20;99.90;;;;;;5085157;28;20539;-67
2023/11/14 02:55:05;;;;;;;12.07;1.80;;;11.20;99.90;;;;;;5084690;28;21039;-67
2023/11/14 02:57:35;;;;;;;13.90;2.13;;;11.20;99.90;;;;;;5082314;28;21064;-71
2023/11/14 03:00:04;;;;;;;11.87;1.80;;;11.20;99.90;;;;;;5081209;28;20469;-69
2023/11/14 03:02:32;;;;;;;13.87;2.60;;;11.10;99.90;;;;;;5081487;28;20481;-70
2023/11/14 03:05:00;;;;;;;13.83;2.60;;;11.10;99.90;;;;;;5085065;28;20493;-70
2023/11/14 03:07:30;;;;;;;17.90;3.97;;;11.10;99.90;;;;;;5081443;28;20471;-69
2023/11/14 03:09:59;;;;;;;14.20;2.60;;;11.10;99.90;;;;;;5088598;28;20462;-69
2023/11/14 03:12:27;;;;;;;8.77;1.57;;;11.10;99.90;;;;;;5080925;28;20483;-68
2023/11/14 03:14:56;;;;;;;11.07;2.40;;;11.20;99.90;;;;;;5088885;28;20446;-67
2023/11/14 03:17:24;;;;;;;13.60;1.70;;;11.20;99.90;;;;;;5088733;28;20481;-70
2023/11/14 03:19:52;;;;;;;11.60;1.67;;;11.20;99.90;;;;;;5079445;28;20470;-69
2023/11/14 03:22:20;;;;;;;12.57;2.10;;;11.30;99.90;;;;;;5071268;28;20553;-69
2023/11/14 03:24:48;;;;;;;12.53;2.20;;;11.20;99.90;;;;;;5085610;28;20477;-67
2023/11/14 03:27:16;;;;;;;10.93;2.00;;;11.20;99.90;;;;;;5082943;28;20471;-69
2023/11/14 03:29:45;;;;;;;9.03;1.67;;;11.20;99.90;;;;;;5084054;28;20889;-69
2023/11/14 03:32:15;;;;;;;9.43;1.93;;;11.20;99.90;;;;;;5084724;28;20561;-70
2023/11/14 03:34:43;;;;;;;13.43;1.90;;;11.20;99.90;;;;;;5087911;28;20855;-67
2023/11/14 03:37:11;;;;;;;14.60;2.63;;;11.10;99.90;;;;;;5082148;28;20475;-69
2023/11/14 03:39:41;;;;;;;15.93;2.53;;;11.00;99.90;;;;;;5087640;28;20561;-70
2023/11/14 03:42:09;;;;;;;10.47;2.03;;;11.00;99.90;;;;;;5083061;28;20446;-68
2023/11/14 03:44:37;;;;;;;9.80;1.90;;;11.00;99.90;;;;;;5073898;28;20469;-69
2023/11/14 03:47:05;;;;;;;10.60;2.03;;;11.00;99.90;;;;;;5075600;28;20518;-68
2023/11/14 03:49:34;;;;;;;14.17;3.87;;;11.00;99.90;;;;;;5086378;28;20457;-68
2023/11/14 03:52:02;;;;;;;15.20;2.20;;;11.00;99.90;;;;;;5088719;28;20948;-68
2023/11/14 03:54:31;;;;;;;14.57;2.30;;;11.00;99.90;;;;;;5080480;28;20553;-69
2023/11/14 03:56:59;;;;;;;9.23;1.77;;;11.00;99.90;;;;;;5088821;28;20470;-68
2023/11/14 03:59:26;;;;;;;17.33;2.30;;;11.00;99.90;;;;;;5095140;28;20474;-68
2023/11/14 04:01:55;;;;;;;11.73;2.03;;;10.90;99.90;;;;;;5087858;28;20510;-70
2023/11/14 04:04:23;;;;;;;10.57;2.07;;;10.90;99.90;;;;;;5081880;28;20872;-68
2023/11/14 04:06:52;;;;;;;12.43;1.87;;;10.90;99.90;;;;;;5071803;28;20557;-68
2023/11/14 04:09:20;;;;;;;11.03;2.37;;;10.90;99.90;;;;;;5078236;28;20567;-69
2023/11/14 04:11:48;;;;;;;14.73;2.37;;;10.80;99.90;;;;;;5083856;28;20563;-68
2023/11/14 04:14:18;;;;;;;14.20;2.20;;;10.80;99.90;;;;;;5075520;28;21156;-67
2023/11/14 04:16:46;;;;;;;9.03;2.03;;;10.80;99.90;;;;;;5084076;28;20474;-68
2023/11/14 04:19:14;;;;;;;10.03;1.80;;;10.80;99.90;;;;;;5080768;28;20485;-69
2023/11/14 04:21:42;;;;;;;9.93;1.80;;;10.70;99.90;;;;;;5083256;28;20477;-67
2023/11/14 04:24:11;;;;;;;13.40;2.87;;;10.70;99.90;;;;;;5075916;28;20849;-68
2023/11/14 04:26:42;;;;;;;10.00;2.10;;;10.80;99.90;;;;;;5087145;28;20459;-67
2023/11/14 04:29:11;;;;;;;11.60;2.03;;;10.80;99.90;;;;;;5088062;28;20452;-69
2023/11/14 04:31:38;;;;;;;8.73;1.63;;;11.00;99.90;;;;;;5088192;28;20453;-67
2023/11/14 04:34:07;;;;;;;13.17;1.93;;;11.00;99.90;;;;;;5085221;28;20477;-66
2023/11/14 04:36:35;;;;;;;10.67;2.50;;;11.00;99.90;;;;;;5084186;28;20900;-67
2023/11/14 04:39:04;;;;;;;10.57;1.90;;;11.00;99.90;;;;;;5078611;28;20470;-67
2023/11/14 04:41:33;;;;;;;8.77;2.13;;;11.00;99.90;;;;;;5085428;28;20529;-67
2023/11/14 04:44:01;;;;;;;8.67;1.90;;;11.00;99.90;;;;;;5082952;28;21038;-68
2023/11/14 04:46:29;;;;;;;9.37;1.83;;;11.00;99.90;;;;;;5081557;28;20568;-67
2023/11/14 04:48:57;;;;;;;9.00;1.90;;;11.10;99.90;;;;;;5080365;28;20837;-67
2023/11/14 04:51:25;;;;;;;10.33;1.93;;;11.10;99.90;;;;;;5081829;28;20470;-68
2023/11/14 04:53:53;;;;;;;10.90;1.80;;;11.10;99.90;;;;;;5077169;28;20491;-68
2023/11/14 04:56:22;;;;;;;9.00;1.87;;;11.10;99.90;;;;;;5083955;28;20568;-66
2023/11/14 04:58:51;;;;;;;10.60;1.50;;;11.10;99.90;;;;;;5087632;28;20478;-67
2023/11/14 05:01:19;;;;;;;10.00;1.70;;;11.20;99.90;;;;;;5079143;28;20509;-65
2023/11/14 05:03:48;;;;;;;9.60;2.73;;;11.10;99.90;;;;;;5087668;28;20541;-66
2023/11/14 05:06:16;;;;;;;14.40;2.50;;;11.10;99.90;;;;;;5083011;28;21019;-68
2023/11/14 05:08:44;;;;;;;7.70;1.30;;;11.00;99.90;;;;;;5084528;28;20466;-67
2023/11/14 05:11:12;;;;;;;9.80;2.10;;;11.00;99.90;;;;;;5082106;28;20516;-67
2023/11/14 05:13:41;;;;;;;13.17;1.67;;;11.00;99.90;;;;;;5082251;28;20485;-67
2023/11/14 05:16:11;;;;;;;11.60;2.10;;;11.00;99.90;;;;;;5085312;28;20459;-67
2023/11/14 05:18:51;;;;;;;11.13;1.70;;;10.90;99.90;;;;;;5086724;28;20958;-66
2023/11/14 05:21:19;;;;;;;7.27;1.63;;;10.70;99.90;;;;;;5088504;28;20966;-67
2023/11/14 05:23:47;;;;;;;12.33;1.70;;;10.60;99.90;;;;;;5085100;28;20446;-66
2023/11/14 05:26:15;;;;;;;8.13;1.93;;;10.40;99.90;;;;;;5085237;28;20654;-66
2023/11/14 05:28:43;;;;;;;15.63;3.53;;;10.20;99.90;;;;;;5098924;28;20458;-65
2023/11/14 05:31:13;;;;;;;9.97;1.77;;;10.20;99.90;;;;;;5090856;28;20461;-67
2023/11/14 05:33:41;;;;;;;8.37;1.70;;;10.20;99.90;;;;;;5090268;28;21098;-66
2023/11/14 05:36:09;;;;;;;15.73;2.10;;;10.20;99.90;;;;;;5089709;28;20457;-67
2023/11/14 05:38:37;;;;;;;12.67;1.93;;;10.20;99.90;;;;;;5090902;28;20497;-66
2023/11/14 05:41:05;;;;;;;12.57;2.80;;;10.20;99.90;;;;;;5087298;28;20850;-68
2023/11/14 05:43:33;;;;;;;9.83;2.90;;;10.30;99.90;;;;;;5090611;28;20447;-69
2023/11/14 05:46:01;;;;;;;8.73;1.50;;;10.40;99.90;;;;;;5090612;28;20460;-68
2023/11/14 05:48:31;;;;;;;11.20;1.97;;;10.30;99.90;;;;;;5090853;28;20480;-67
2023/11/14 05:50:59;;;;;;;12.03;1.87;;;10.40;99.90;;;;;;5090564;28;20460;-68
2023/11/14 05:53:27;;;;;;;10.90;2.37;;;10.70;99.90;;;;;;5090194;28;21077;-69
2023/11/14 05:55:55;;;;;;;9.77;1.90;;;10.80;99.90;;;;;;5095751;28;20457;-70
2023/11/14 05:58:23;;;;;;;10.10;2.20;;;10.80;99.90;;;;;;5090456;28;20469;-70
2023/11/14 06:00:51;;;;;;;8.90;1.77;;;10.60;99.90;;;;;;5090643;28;20870;-71
2023/11/14 06:03:21;;;;;;;11.70;2.27;;;10.60;99.90;;;;;;5090735;28;20481;-69
2023/11/14 06:05:50;;;;;;;12.70;2.27;;;10.50;99.90;;;;;;5089800;28;21263;-69
2023/11/14 06:08:18;;;;;;;11.83;1.70;;;10.40;99.90;;;;;;5089989;28;20851;-66
2023/11/14 06:10:46;;;;;;;10.20;2.03;;;10.40;99.90;;;;;;5093634;28;20698;-68
2023/11/14 06:13:14;;;;;;;11.00;2.50;;;10.20;99.90;;;;;;5098906;28;20481;-69
2023/11/14 06:15:42;;;;;;;8.03;1.80;;;10.10;99.90;;;;;;5099001;28;20514;-66
2023/11/14 06:18:10;;;;;;;9.70;1.67;;;9.90;99.90;;;;;;5085824;28;20572;-67
2023/11/14 06:20:39;;;;;;;9.70;2.33;;;9.80;99.90;;;;;;5089156;28;20453;-67
2023/11/14 06:23:08;;;;;;;12.17;1.70;;;9.80;99.90;;;;;;5098212;28;20504;-67
2023/11/14 06:25:36;;;;;;;8.57;2.30;;;9.80;99.90;;;;;;5088786;28;20537;-68
2023/11/14 06:28:04;;;;;;;7.33;1.60;;;9.70;99.90;;;;;;5089143;28;20469;-68
2023/11/14 06:30:35;;;;;;;9.80;1.93;;;9.60;99.90;;;;;;5101156;28;20449;-67
2023/11/14 06:33:04;;;;;;;13.90;2.40;;;9.70;99.90;;;;;;5089945;28;20480;-69
2023/11/14 06:35:31;;;;;;;9.77;1.70;;;9.90;99.90;;;;;;5089632;28;20443;-70
2023/11/14 06:37:59;;;;;;;15.80;3.13;;;9.70;99.90;;;;;;5089386;28;20471;-70
2023/11/14 06:40:29;;;;;;;8.77;2.07;;;9.70;99.90;;;;;;5089747;28;20981;-71
2023/11/14 06:42:57;;;;;;;10.83;2.73;;;9.50;99.90;;;;;;5085345;28;20542;-69
2023/11/14 06:45:25;;;;;;;10.87;2.47;;;9.40;99.90;;;;;;5084663;28;20454;-68
2023/11/14 06:47:52;;;;;;;12.60;2.40;;;9.30;99.90;;;;;;5086904;28;20475;-68
2023/11/14 06:50:21;;;;;;;13.20;2.60;;;9.30;99.90;;;;;;5093932;28;20975;-68
2023/11/14 06:53:04;;;;;;;8.73;1.90;;;9.30;99.90;;;;;;5081760;28;20843;-69
2023/11/14 06:55:33;;;;;;;10.27;4.40;;;9.30;99.90;;;;;;5088742;28;20478;-70
2023/11/14 06:58:01;;;;;;;8.73;2.23;;;9.30;99.90;;;;;;5088919;28;21262;-68
2023/11/14 07:00:30;;;;;;;12.23;2.20;;;9.30;99.90;;;;;;5089046;28;20933;-68
2023/11/14 07:02:58;;;;;;;13.53;2.80;;;9.30;99.90;;;;;;5089027;28;20442;-69
2023/11/14 07:05:27;;;;;;;10.53;2.50;;;9.30;99.90;;;;;;5088981;28;20442;-68
2023/11/14 07:07:55;;;;;;;10.03;2.67;;;9.40;99.90;;;;;;5088823;28;20495;-68
2023/11/14 07:10:24;;;;;;;9.60;1.97;;;9.40;99.90;;;;;;5089336;28;20447;-68
2023/11/14 07:12:53;;;;;;;8.67;2.30;;;9.50;99.90;;;;;;5089116;28;20900;-68
2023/11/14 07:15:21;;;;;;;12.87;2.40;;;9.50;99.90;;;;;;5088688;28;20492;-67
2023/11/14 07:17:50;;;;;;;12.70;2.30;;;9.50;99.90;;;;;;5089181;28;20880;-67
2023/11/14 07:20:20;;;;;;;13.03;2.70;;;9.60;99.90;;;;;;5089227;28;20445;-67
2023/11/14 07:22:49;;;;;;;11.17;2.30;;;9.70;99.90;;;;;;5089032;28;20832;-70
2023/11/14 07:25:17;;;;;;;8.30;1.60;;;9.80;99.90;;;;;;5088510;28;21100;-68
2023/11/14 07:27:47;;;;;;;9.40;1.60;;;9.90;99.90;;;;;;5089739;28;20472;-69
2023/11/14 07:30:17;;;;;;;10.47;2.10;;;10.00;99.90;;;;;;5089060;28;20974;-69
2023/11/14 07:32:46;;;;;;;8.53;1.83;;;10.00;99.90;;;;;;5088773;28;20478;-69
2023/11/14 07:35:14;;;;;;;14.40;2.80;;;10.20;99.90;;;;;;5088305;28;20544;-68
2023/11/14 07:37:43;;;;;;;8.23;1.50;;;10.20;99.90;;;;;;5088324;28;20521;-69
2023/11/14 07:40:12;;;;;;;9.53;1.63;;;10.30;99.90;;;;;;5088852;28;21020;-69
2023/11/14 07:42:41;;;;;;;11.00;1.80;;;10.30;99.90;;;;;;5088546;28;20544;-69
2023/11/14 07:45:10;;;;;;;11.97;2.60;;;10.30;99.90;;;;;;5088298;28;20459;-67
2023/11/14 07:47:41;;;;;;;13.17;3.20;;;10.30;99.90;;;;;;5088365;28;20478;-69
2023/11/14 07:50:09;;;;;;;8.90;1.90;;;10.20;99.90;;;;;;5088459;28;20970;-70
2023/11/14 07:52:37;;;;;;;11.30;4.53;;;10.10;99.90;;;;;;5088420;28;20537;-68
2023/11/14 07:55:06;;;;;;;9.07;1.70;;;10.20;99.90;;;;;;5088212;28;20565;-68
2023/11/14 07:57:34;;;;;;;11.50;3.27;;;10.20;99.90;;;;;;5088472;28;20993;-70
2023/11/14 08:00:03;;;;;;;11.43;2.60;;;10.40;99.90;;;;;;5088994;28;20442;-68
2023/11/14 08:02:32;;;;;;;8.23;1.80;;;10.40;99.90;;;;;;5088685;28;20490;-67
2023/11/14 08:05:01;;;;;;;9.87;1.97;;;10.50;99.90;;;;;;5088278;28;20443;-67
2023/11/14 08:07:29;;;;;;;11.73;2.20;;;10.70;99.90;;;;;;5088297;28;20466;-69
2023/11/14 08:09:57;;;;;;;9.10;1.37;;;10.90;99.90;;;;;;5088732;28;20525;-69
2023/11/14 08:12:25;;;;;;;8.23;1.67;;;11.10;99.90;;;;;;5088578;28;20460;-70
2023/11/14 08:14:53;;;;;;;6.97;1.23;;;11.20;99.90;;;;;;5088175;28;20502;-69
2023/11/14 08:17:21;;;;;;;11.93;2.03;;;11.30;99.90;;;;;;5088223;28;20576;-70
2023/11/14 08:19:49;;;;;;;12.30;2.00;;;11.40;99.90;;;;;;5088054;28;20482;-69
2023/11/14 08:22:19;;;;;;;14.60;2.33;;;11.70;99.90;;;;;;5088277;28;20468;-68
2023/11/14 08:24:48;;;;;;;8.50;1.73;;;11.70;99.90;;;;;;5088028;28;20475;-68
2023/11/14 08:27:16;;;;;;;7.30;1.73;;;11.80;99.90;;;;;;5087749;28;20492;-68
2023/11/14 08:29:48;;;;;;;8.70;1.60;;;11.90;99.90;;;;;;5088238;28;20923;-66
2023/11/14 08:32:16;;;;;;;7.23;1.87;;;12.00;99.90;;;;;;5088251;28;20814;-68
2023/11/14 08:34:44;;;;;;;9.07;1.20;;;12.10;99.90;;;;;;5087459;28;20485;-68
2023/11/14 08:37:12;;;;;;;9.80;1.83;;;12.00;99.90;;;;;;5088208;28;20845;-68
2023/11/14 08:39:47;;;;;;;7.50;1.23;;;12.00;99.90;;;;;;5088320;28;20453;-68
2023/11/14 08:42:15;;;;;;;9.13;1.10;;;12.00;99.90;;;;;;5088146;28;20975;-67
2023/11/14 08:44:43;;;;;;;9.00;1.10;;;11.90;99.90;;;;;;5087779;28;20440;-67
2023/11/14 08:47:11;;;;;;;6.97;0.93;;;11.80;99.90;;;;;;5087968;28;20468;-68
2023/11/14 08:49:40;;;;;;;10.00;1.07;;;12.00;99.90;;;;;;5091153;28;20455;-67
2023/11/14 08:52:08;;;;;;;7.63;1.20;;;12.00;99.90;;;;;;5092009;28;20464;-68
2023/11/14 08:54:37;;;;;;;6.53;1.10;;;12.20;99.90;;;;;;5091653;28;20555;-69
2023/11/14 08:57:07;;;;;;;10.63;1.30;;;12.20;99.90;;;;;;5091921;28;20468;-70
2023/11/14 08:59:35;;;;;;;8.83;1.20;;;12.30;99.90;;;;;;5091855;28;20871;-69
2023/11/14 09:02:03;;;;;;;8.57;1.10;;;12.40;99.90;;;;;;5092120;28;20540;-68
2023/11/14 09:04:31;;;;;;;8.03;1.13;;;12.50;99.90;;;;;;5091458;28;20833;-69
2023/11/14 09:06:59;;;;;;;8.50;1.03;;;12.50;99.90;;;;;;5091498;28;20847;-67
2023/11/14 09:09:27;;;;;;;7.47;1.20;;;12.50;99.90;;;;;;5091848;28;20446;-67
2023/11/14 09:11:55;;;;;;;6.23;0.87;;;12.50;99.90;;;;;;5091469;28;20450;-67
2023/11/14 09:14:25;;;;;;;8.50;1.30;;;12.50;99.90;;;;;;5091287;28;20502;-67
2023/11/14 09:16:54;;;;;;;5.83;0.80;;;12.50;99.90;;;;;;5091549;28;20507;-67
2023/11/14 09:19:22;;;;;;;6.70;1.20;;;12.60;99.90;;;;;;5091591;28;20460;-68
2023/11/14 09:21:50;;;;;;;7.53;0.97;;;12.40;99.90;;;;;;5091518;28;20504;-70
2023/11/14 09:24:18;;;;;;;7.10;0.90;;;12.40;99.90;;;;;;5089374;28;20479;-68
2023/11/14 09:26:46;;;;;;;7.67;1.87;;;12.40;99.90;;;;;;5091002;28;20448;-70
2023/11/14 09:29:14;;;;;;;10.30;1.00;;;12.40;99.90;;;;;;5090325;28;20491;-70
2023/11/14 09:31:44;;;;;;;7.60;1.07;;;12.40;99.90;;;;;;5090516;28;20562;-70
2023/11/14 09:34:12;;;;;;;6.53;1.07;;;12.40;99.90;;;;;;5090610;28;20444;-68
2023/11/14 09:36:40;;;;;;;6.00;0.80;;;12.40;99.90;;;;;;5090804;28;20625;-67
2023/11/14 09:39:08;;;;;;;7.67;1.33;;;12.40;99.90;;;;;;5090990;28;20444;-67
2023/11/14 09:41:51;;;;;;;6.60;0.97;;;12.40;99.90;;;;;;5090880;28;20483;-70
2023/11/14 09:44:19;;;;;;;7.20;0.97;;;12.40;99.90;;;;;;5090404;28;20457;-71
2023/11/14 09:46:50;;;;;;;5.87;1.00;;;12.40;99.90;;;;;;5090984;28;20480;-70
2023/11/14 09:49:19;;;;;;;6.90;1.40;;;12.40;99.90;;;;;;5090306;28;20442;-66
2023/11/14 09:51:47;;;;;;;6.40;0.83;;;12.40;99.90;;;;;;5089466;28;20490;-66
2023/11/14 09:54:17;;;;;;;10.50;1.13;;;12.40;99.90;;;;;;5089678;28;20498;-67
2023/11/14 09:56:47;;;;;;;6.10;0.60;;;12.40;99.90;;;;;;5089453;28;20585;-68
2023/11/14 09:59:15;;;;;;;6.83;1.00;;;12.30;99.90;;;;;;5089130;28;20941;-68
2023/11/14 10:01:44;;;;;;;6.43;1.00;;;12.20;99.90;;;;;;5089653;28;20446;-71
2023/11/14 10:04:14;;;;;;;6.20;0.70;;;12.20;99.90;;;;;;5089790;28;20444;-68
2023/11/14 10:06:42;;;;;;;8.60;0.93;;;12.20;99.90;;;;;;5089737;28;20440;-71
2023/11/14 10:09:14;;;;;;;6.70;1.30;;;12.20;99.90;;;;;;5089652;28;20470;-69
2023/11/14 10:11:43;;;;;;;7.07;1.00;;;12.20;99.90;;;;;;5090142;28;20477;-70
2023/11/14 10:14:44;;;;;;;8.90;1.27;;;12.20;99.90;;;;;;5089827;28;20883;-68
2023/11/14 10:17:13;;;;;;;9.17;1.03;;;12.10;99.90;;;;;;5088769;28;20463;-71
2023/11/14 10:22:36;;;;;;;6.20;1.03;;;12.10;99.90;;;;;;5106359;27;20580;-68
2023/11/14 10:25:04;;;;;;;7.17;1.00;;;12.20;99.90;;;;;;5102371;28;20448;-67
2023/11/14 10:27:35;;;;;;;7.53;1.00;;;12.10;99.90;;;;;;5096308;28;20462;-71
2023/11/14 10:30:04;;;;;;;7.20;0.90;;;12.20;99.90;;;;;;5092435;28;20464;-68
2023/11/14 10:32:32;;;;;;;6.60;0.80;;;12.20;99.90;;;;;;5085418;28;20446;-69
2023/11/14 10:35:16;;;;;;;7.43;0.97;;;12.30;99.90;;;;;;5084926;28;20513;-70
2023/11/14 10:37:46;;;;;;;6.20;1.17;;;12.30;99.90;;;;;;5083358;28;21053;-72
2023/11/14 10:40:15;;;;;;;6.90;1.23;;;12.30;99.90;;;;;;5077981;28;21001;-69
2023/11/14 10:42:52;;;;;;;7.97;1.20;;;12.40;99.90;;;;;;5084836;28;20531;-72
2023/11/14 10:45:20;;;;;;;7.23;0.93;;;12.40;99.90;;;;;;5079006;28;20444;-69
2023/11/14 10:47:48;;;;;;;6.50;0.73;;;12.50;99.90;;;;;;5085071;28;20487;-68
2023/11/14 10:50:27;;;;;;;8.30;1.40;;;12.60;99.90;;;;;;5078161;28;20532;-70
2023/11/14 10:52:59;;;;;;;6.80;0.90;;;12.60;99.90;;;;;;5091835;28;20920;-69
2023/11/14 10:55:27;;;;;;;7.03;0.80;;;12.70;99.90;;;;;;5084520;28;20448;-71
2023/11/14 10:57:55;;;;;;;7.77;1.07;;;12.70;99.90;;;;;;5084763;28;20858;-70
2023/11/14 11:00:24;;;;;;;9.10;1.13;;;12.80;99.90;;;;;;5084954;28;20451;-69
2023/11/14 11:02:54;;;;;;;6.90;1.03;;;12.90;99.90;;;;;;5084517;28;20525;-69
2023/11/14 11:05:28;;;;;;;8.10;1.50;;;12.90;99.90;;;;;;5084598;28;20485;-68
2023/11/14 11:08:02;;;;;;;8.37;1.13;;;12.90;99.90;;;;;;5084301;28;20461;-71
2023/11/14 11:10:31;;;;;;;6.77;1.23;;;13.00;99.90;;;;;;5084749;28;21028;-67
2023/11/14 11:13:03;;;;;;;7.20;0.90;;;13.00;99.90;;;;;;5084284;28;20819;-70
2023/11/14 11:15:42;;;;;;;8.53;1.50;;;12.90;99.90;;;;;;5084090;28;20499;-68
2023/11/14 11:18:11;;;;;;;6.47;1.27;;;12.90;99.90;;;;;;5090783;28;20513;-71
2023/11/14 11:20:39;;;;;;;6.57;0.90;;;12.90;99.90;;;;;;5084070;28;20456;-72
2023/11/14 11:23:11;;;;;;;8.10;1.10;;;12.90;99.90;;;;;;5084438;28;20446;-71
2023/11/14 11:25:41;;;;;;;8.63;1.93;;;13.00;99.90;;;;;;5083793;28;20453;-69
2023/11/14 11:28:31;;;;;;;6.13;0.90;;;13.10;99.90;;;;;;5084016;28;20510;-68
2023/11/14 11:31:08;;;;;;;7.60;1.23;;;13.30;99.90;;;;;;5084263;28;20448;-67
2023/11/14 11:33:38;;;;;;;7.57;1.40;;;13.30;99.90;;;;;;5072408;28;20454;-68
2023/11/14 11:36:34;;;;;;;11.40;1.10;;;13.40;99.90;;;;;;5075613;28;20443;-68
2023/11/14 11:39:05;;;;;;;6.30;0.83;;;13.40;99.90;;;;;;5054421;28;20493;-69
2023/11/14 11:41:35;;;;;;;7.47;1.03;;;13.30;99.90;;;;;;5081124;28;20484;-68
2023/11/14 11:44:08;;;;;;;7.03;0.97;;;13.30;99.90;;;;;;5077327;28;20525;-71
2023/11/14 11:46:40;;;;;;;7.40;0.97;;;13.30;99.90;;;;;;5076652;28;20941;-70
2023/11/14 11:49:28;;;;;;;7.53;0.90;;;13.20;99.90;;;;;;5072804;28;20812;-71
2023/11/14 11:52:17;;;;;;;6.77;1.20;;;13.30;99.90;;;;;;5071233;28;20997;-69
2023/11/14 11:54:47;;;;;;;8.90;1.30;;;13.30;99.90;;;;;;5069841;28;20457;-69
2023/11/14 11:57:22;;;;;;;7.70;1.20;;;13.40;99.90;;;;;;5070199;28;20466;-69
2023/11/14 12:00:21;;;;;;;6.70;0.97;;;13.50;99.90;;;;;;5070022;28;20465;-69
2023/11/14 12:02:49;;;;;;;6.77;1.23;;;13.60;99.90;;;;;;5069803;28;20956;-70
2023/11/14 12:05:18;;;;;;;9.10;1.27;;;13.70;99.90;;;;;;5069830;28;20959;-69
2023/11/14 12:07:47;;;;;;;8.00;0.90;;;13.70;99.90;;;;;;5069777;28;20502;-70
2023/11/14 12:10:18;;;;;;;7.23;1.07;;;13.70;99.90;;;;;;5063152;28;20539;-70
2023/11/14 12:12:47;;;;;;;8.17;1.00;;;13.70;99.90;;;;;;5069847;28;20534;-68
2023/11/14 12:15:20;;;;;;;8.47;1.30;;;13.80;99.90;;;;;;5069877;28;20500;-68
2023/11/14 12:17:52;;;;;;;7.40;1.03;;;13.80;99.90;;;;;;5069856;28;20567;-69
2023/11/14 12:20:22;;;;;;;8.93;1.47;;;13.90;99.90;;;;;;5063967;28;20529;-70
2023/11/14 12:22:52;;;;;;;7.40;1.00;;;14.00;99.90;;;;;;5069508;28;20565;-69
2023/11/14 12:25:22;;;;;;;6.90;1.17;;;14.00;99.90;;;;;;5069631;28;20909;-70
2023/11/14 12:27:55;;;;;;;8.30;1.30;;;14.00;99.90;;;;;;5068878;28;20497;-69
2023/11/14 12:30:24;;;;;;;9.10;1.20;;;13.80;99.90;;;;;;5069743;28;20508;-72
2023/11/14 12:33:06;;;;;;;7.23;1.23;;;13.70;99.90;;;;;;5069470;28;20454;-70
2023/11/14 12:35:56;;;;;;;6.87;1.03;;;13.80;99.90;;;;;;5069259;28;20457;-71
2023/11/14 12:38:32;;;;;;;7.23;1.20;;;13.80;99.90;;;;;;5064097;28;20475;-71
2023/11/14 12:41:18;;;;;;;6.83;1.20;;;13.80;99.90;;;;;;5068871;28;21121;-69
2023/11/14 12:43:47;;;;;;;7.03;1.30;;;13.80;99.90;;;;;;5067942;28;20478;-69
2023/11/14 12:46:33;;;;;;;8.10;1.13;;;13.90;99.90;;;;;;5064554;28;20443;-70
2023/11/14 12:49:11;;;;;;;6.60;1.40;;;13.80;99.90;;;;;;5069101;28;20471;-71
2023/11/14 12:51:41;;;;;;;6.83;0.97;;;13.70;99.90;;;;;;5069227;28;20443;-69
2023/11/14 12:54:12;;;;;;;7.30;1.30;;;13.70;99.90;;;;;;5075326;28;20443;-72
2023/11/14 12:56:42;;;;;;;8.13;1.47;;;13.70;99.90;;;;;;5068537;28;20949;-69
2023/11/14 12:59:11;;;;;;;7.60;1.20;;;13.70;99.90;;;;;;5075341;28;20457;-68